createdAt,value
2023-03-15T00:00:46.386Z,1.50
2023-03-15T00:03:17.260Z,1.17
2023-03-15T00:05:48.583Z,1.00
2023-03-15T00:08:22.118Z,1.30
2023-03-15T00:10:52.269Z,1.17
2023-03-15T00:13:22.522Z,1.20
2023-03-15T00:15:54.764Z,1.07
2023-03-15T00:18:24.976Z,1.33
2023-03-15T00:20:55.250Z,1.63
2023-03-15T00:23:27.929Z,1.40
2023-03-15T00:25:58.083Z,1.00
2023-03-15T00:28:28.022Z,1.60
2023-03-15T00:31:06.930Z,1.40
2023-03-15T00:33:38.729Z,1.40
2023-03-15T00:36:10.711Z,1.00
2023-03-15T00:38:44.659Z,1.70
2023-03-15T00:41:17.312Z,1.50
2023-03-15T00:43:47.823Z,1.40
2023-03-15T00:46:21.146Z,1.20
2023-03-15T00:48:51.787Z,1.33
2023-03-15T00:51:26.057Z,1.10
2023-03-15T00:53:58.991Z,1.10
2023-03-15T00:56:30.775Z,1.90
2023-03-15T00:59:01.812Z,1.30
2023-03-15T01:01:33.741Z,1.30
2023-03-15T01:04:04.268Z,1.43
2023-03-15T01:06:35.220Z,1.20
2023-03-15T01:09:08.078Z,1.30
2023-03-15T01:11:37.971Z,1.20
2023-03-15T01:14:08.955Z,1.53
2023-03-15T01:16:40.259Z,1.07
2023-03-15T01:19:12.900Z,1.43
2023-03-15T01:21:42.817Z,1.20
2023-03-15T01:24:17.867Z,1.70
2023-03-15T01:26:47.692Z,0.97
2023-03-15T01:29:18.522Z,1.27
2023-03-15T01:31:48.945Z,1.10
2023-03-15T01:34:19.684Z,1.20
2023-03-15T01:36:54.153Z,1.57
2023-03-15T01:39:31.742Z,1.60
2023-03-15T01:42:01.787Z,1.30
2023-03-15T01:44:51.423Z,1.67
2023-03-15T01:47:26.082Z,1.33
2023-03-15T01:50:03.414Z,1.77
2023-03-15T01:52:37.793Z,1.10
2023-03-15T01:55:15.065Z,1.27
2023-03-15T01:58:01.709Z,1.20
2023-03-15T02:00:33.975Z,1.37
2023-03-15T02:03:15.376Z,1.07
2023-03-15T02:05:54.808Z,1.83
2023-03-15T02:08:52.483Z,1.20
2023-03-15T02:11:26.974Z,1.23
2023-03-15T02:13:59.587Z,1.20
2023-03-15T02:16:32.635Z,0.90
2023-03-15T02:19:08.767Z,1.20
2023-03-15T02:21:49.070Z,1.80
2023-03-15T02:24:29.231Z,1.60
2023-03-15T02:27:01.866Z,1.40
2023-03-15T02:29:34.433Z,0.80
2023-03-15T02:32:05.904Z,1.50
2023-03-15T02:34:35.777Z,1.20
2023-03-15T02:37:06.048Z,1.50
2023-03-15T02:39:35.854Z,1.40
2023-03-15T02:42:06.314Z,1.57
2023-03-15T02:44:42.003Z,2.13
2023-03-15T02:47:16.786Z,1.57
2023-03-15T02:49:50.880Z,1.20
2023-03-15T02:52:20.986Z,1.50
2023-03-15T02:54:51.155Z,1.60
2023-03-15T02:57:22.840Z,1.50
2023-03-15T02:59:56.978Z,1.57
2023-03-15T03:02:27.115Z,1.90
2023-03-15T03:04:57.129Z,1.10
2023-03-15T03:07:27.198Z,1.10
2023-03-15T03:10:03.912Z,1.17
2023-03-15T03:12:42.722Z,2.17
2023-03-15T03:15:15.734Z,1.30
2023-03-15T03:17:45.809Z,1.47
2023-03-15T03:20:17.167Z,1.80
2023-03-15T03:22:50.471Z,1.53
2023-03-15T03:25:21.495Z,1.43
2023-03-15T03:27:51.948Z,1.50
2023-03-15T03:30:24.629Z,1.43
2023-03-15T03:32:55.384Z,2.10
2023-03-15T03:35:25.544Z,1.30
2023-03-15T03:37:56.356Z,1.63
2023-03-15T03:40:32.801Z,1.37
2023-03-15T03:43:03.193Z,1.57
2023-03-15T03:45:36.546Z,1.37
2023-03-15T03:48:07.059Z,1.53
2023-03-15T03:50:37.783Z,1.27
2023-03-15T03:53:07.578Z,1.60
2023-03-15T03:55:38.264Z,2.00
2023-03-15T03:58:08.034Z,1.47
2023-03-15T04:00:54.338Z,3.90
2023-03-15T04:03:27.325Z,1.60
2023-03-15T04:06:05.784Z,1.50
2023-03-15T04:08:39.439Z,1.47
2023-03-15T04:11:10.529Z,1.90
2023-03-15T04:13:43.025Z,1.13
2023-03-15T04:16:15.994Z,1.00
2023-03-15T04:18:59.385Z,1.27
2023-03-15T04:21:32.134Z,1.10
2023-03-15T04:24:15.779Z,0.67
2023-03-15T04:27:01.407Z,0.63
2023-03-15T04:29:48.097Z,0.60
2023-03-15T04:32:42.641Z,0.80
2023-03-15T04:35:23.252Z,0.80
2023-03-15T04:37:55.528Z,0.70
2023-03-15T04:40:43.938Z,0.50
2023-03-15T04:43:24.924Z,0.63
2023-03-15T04:46:14.046Z,5.13
2023-03-15T04:49:06.188Z,8.30
2023-03-15T04:52:03.377Z,7.50
2023-03-15T04:54:52.043Z,14.43
2023-03-15T04:57:36.160Z,12.90
2023-03-15T05:00:17.196Z,14.80
2023-03-15T05:03:03.743Z,20.33
2023-03-15T05:05:50.454Z,19.70
2023-03-15T05:08:48.627Z,17.67
2023-03-15T05:11:56.846Z,28.00
2023-03-15T05:14:45.253Z,22.33
2023-03-15T05:17:34.316Z,24.73
2023-03-15T05:20:21.250Z,33.20
2023-03-15T05:23:12.032Z,24.23
2023-03-15T05:25:54.328Z,25.67
2023-03-15T05:28:45.638Z,26.00
2023-03-15T05:31:53.997Z,29.27
2023-03-15T05:34:33.554Z,15.73
2023-03-15T05:37:14.626Z,15.57
2023-03-15T05:40:08.279Z,15.23
2023-03-15T05:43:01.972Z,8.83
2023-03-15T05:45:49.931Z,7.87
2023-03-15T05:48:38.503Z,16.57
2023-03-15T05:51:28.750Z,27.47
2023-03-15T05:54:17.025Z,14.23
2023-03-15T05:57:04.625Z,16.80
2023-03-15T06:00:00.556Z,1.73
2023-03-15T06:02:46.110Z,1.00
2023-03-15T06:05:34.886Z,1.20
2023-03-15T06:08:07.665Z,1.47
2023-03-15T06:10:41.372Z,1.30
2023-03-15T06:13:18.175Z,2.23
2023-03-15T06:15:49.989Z,1.47
2023-03-15T06:18:22.394Z,2.10
2023-03-15T06:20:53.669Z,1.73
2023-03-15T06:23:24.089Z,2.10
2023-03-15T06:25:54.161Z,2.20
2023-03-15T06:28:28.437Z,2.07
2023-03-15T06:31:01.768Z,2.40
2023-03-15T06:33:38.865Z,2.60
2023-03-15T06:36:12.764Z,2.53
2023-03-15T06:38:43.794Z,2.60
2023-03-15T06:41:15.614Z,2.23
2023-03-15T06:43:48.510Z,2.50
2023-03-15T06:46:18.942Z,2.63
2023-03-15T06:48:49.547Z,2.90
2023-03-15T06:51:19.580Z,2.60
2023-03-15T06:53:50.545Z,2.60
2023-03-15T06:56:20.791Z,3.23
2023-03-15T06:58:53.737Z,2.90
2023-03-15T07:01:23.565Z,2.93
2023-03-15T07:03:53.372Z,2.80
2023-03-15T07:06:23.358Z,3.20
2023-03-15T07:08:53.714Z,3.90
2023-03-15T07:11:23.938Z,3.50
2023-03-15T07:13:56.504Z,2.53
2023-03-15T07:16:26.489Z,3.10
2023-03-15T07:18:59.784Z,2.83
2023-03-15T07:21:29.829Z,3.03
2023-03-15T07:24:00.337Z,3.40
2023-03-15T07:26:30.352Z,2.63
2023-03-15T07:29:02.861Z,2.90
2023-03-15T07:31:32.851Z,3.50
2023-03-15T07:34:03.100Z,3.30
2023-03-15T07:36:32.886Z,2.40
2023-03-15T07:39:04.964Z,2.70
2023-03-15T07:41:34.803Z,2.90
2023-03-15T07:44:18.889Z,2.63
2023-03-15T07:46:48.725Z,2.90
2023-03-15T07:49:18.780Z,2.93
2023-03-15T07:51:48.558Z,3.10
2023-03-15T07:54:19.838Z,3.30
2023-03-15T07:56:49.642Z,2.70
2023-03-15T07:59:22.655Z,2.73
2023-03-15T08:01:52.669Z,2.80
2023-03-15T08:04:23.284Z,2.90
2023-03-15T08:06:53.131Z,2.70
2023-03-15T08:09:23.190Z,2.60
2023-03-15T08:11:52.968Z,3.00
2023-03-15T08:14:26.141Z,3.37
2023-03-15T08:16:56.157Z,2.93
2023-03-15T08:19:26.435Z,2.57
2023-03-15T08:21:56.227Z,2.87
2023-03-15T08:24:27.189Z,2.13
2023-03-15T08:26:56.989Z,3.33
2023-03-15T08:29:29.832Z,2.37
2023-03-15T08:32:00.192Z,2.40
2023-03-15T08:34:30.357Z,2.67
2023-03-15T08:37:00.233Z,3.57
2023-03-15T08:39:30.339Z,3.23
2023-03-15T08:42:00.176Z,3.00
2023-03-15T08:44:34.581Z,2.30
2023-03-15T08:47:06.300Z,3.33
2023-03-15T08:49:36.436Z,2.63
2023-03-15T08:52:06.640Z,2.43
2023-03-15T08:54:36.633Z,2.90
2023-03-15T08:57:06.637Z,2.27
2023-03-15T08:59:39.228Z,2.70
2023-03-15T09:04:51.377Z,2.50
2023-03-15T09:07:22.445Z,3.17
2023-03-15T09:09:54.447Z,2.30
2023-03-15T09:12:24.574Z,2.40
2023-03-15T09:14:57.919Z,2.23
2023-03-15T09:17:27.748Z,2.23
2023-03-15T09:19:57.653Z,2.60
2023-03-15T09:22:39.008Z,2.20
2023-03-15T09:25:10.046Z,2.57
2023-03-15T09:27:40.916Z,2.83
2023-03-15T09:30:15.378Z,2.23
2023-03-15T09:32:46.525Z,2.37
2023-03-15T09:35:18.307Z,1.73
2023-03-15T09:37:48.517Z,2.17
2023-03-15T09:40:23.837Z,2.07
2023-03-15T09:43:04.189Z,2.37
2023-03-15T09:46:02.075Z,2.00
2023-03-15T09:48:36.153Z,2.00
2023-03-15T09:51:12.788Z,2.07
2023-03-15T09:53:46.076Z,1.97
2023-03-15T09:56:27.123Z,1.90
2023-03-15T09:59:01.719Z,1.63
2023-03-15T10:01:38.313Z,2.00
2023-03-15T10:04:15.016Z,2.43
2023-03-15T10:06:50.906Z,1.83
2023-03-15T10:09:26.726Z,1.57
2023-03-15T10:12:06.426Z,2.80
2023-03-15T10:14:52.922Z,1.57
2023-03-15T10:17:35.759Z,1.70
2023-03-15T10:20:10.866Z,1.87
2023-03-15T10:22:47.898Z,2.03
2023-03-15T10:25:23.611Z,2.00
2023-03-15T10:27:57.766Z,1.80
2023-03-15T10:30:29.257Z,2.00
2023-03-15T10:33:05.466Z,2.50
2023-03-15T10:35:36.075Z,2.00
2023-03-15T10:38:05.916Z,1.97
2023-03-15T10:40:45.395Z,1.80
2023-03-15T10:43:23.243Z,1.60
2023-03-15T10:46:03.087Z,1.80
2023-03-15T10:48:38.073Z,2.40
2023-03-15T10:51:09.727Z,2.43
2023-03-15T10:53:39.570Z,2.27
2023-03-15T10:56:22.748Z,2.00
2023-03-15T10:59:11.386Z,1.40
2023-03-15T11:01:42.410Z,1.80
2023-03-15T11:04:21.657Z,2.50
2023-03-15T11:06:53.589Z,1.40
2023-03-15T11:09:25.945Z,2.13
2023-03-15T11:12:01.014Z,1.50
2023-03-15T11:14:37.121Z,1.50
2023-03-15T11:17:09.934Z,1.47
2023-03-15T11:19:45.303Z,1.57
2023-03-15T11:22:16.647Z,1.03
2023-03-15T11:24:47.374Z,1.23
2023-03-15T11:27:21.308Z,1.63
2023-03-15T11:29:53.643Z,1.17
2023-03-15T11:32:31.647Z,1.23
2023-03-15T11:35:08.926Z,1.50
2023-03-15T11:37:43.041Z,1.20
2023-03-15T11:40:20.640Z,1.20
2023-03-15T11:42:57.713Z,0.97
2023-03-15T11:45:36.587Z,1.93
2023-03-15T11:48:46.561Z,0.83
2023-03-15T11:51:21.022Z,1.10
2023-03-15T11:53:56.248Z,1.07
2023-03-15T11:56:30.230Z,1.30
2023-03-15T11:59:11.340Z,0.80
2023-03-15T12:01:45.028Z,1.00
2023-03-15T12:04:44.058Z,0.90
2023-03-15T12:07:39.401Z,1.00
2023-03-15T12:10:32.548Z,0.90
2023-03-15T12:13:09.526Z,0.97
2023-03-15T12:15:50.831Z,1.97
2023-03-15T12:18:29.766Z,1.00
2023-03-15T12:21:20.184Z,2.00
2023-03-15T12:24:01.545Z,1.00
2023-03-15T12:26:45.399Z,0.60
2023-03-15T12:29:19.754Z,1.10
2023-03-15T12:31:58.539Z,1.00
2023-03-15T12:34:37.323Z,0.60
2023-03-15T12:37:11.528Z,0.63
2023-03-15T12:39:48.600Z,1.23
2023-03-15T12:42:48.422Z,1.00
2023-03-15T12:45:37.876Z,0.57
2023-03-15T12:48:24.675Z,1.73
2023-03-15T12:51:07.293Z,1.33
2023-03-15T12:53:52.243Z,1.00
2023-03-15T12:56:37.839Z,1.40
2023-03-15T12:59:18.637Z,1.00
2023-03-15T13:01:48.969Z,1.03
2023-03-15T13:04:18.936Z,1.10
2023-03-15T13:06:58.982Z,2.03
2023-03-15T13:10:01.976Z,1.50
2023-03-15T13:12:42.069Z,0.97
2023-03-15T13:15:19.926Z,1.53
2023-03-15T13:17:54.592Z,1.93
2023-03-15T13:20:44.611Z,1.10
2023-03-15T13:23:24.565Z,1.40
2023-03-15T13:26:11.646Z,1.63
2023-03-15T13:28:50.697Z,1.13
2023-03-15T13:31:24.623Z,0.87
2023-03-15T13:33:57.533Z,0.70
2023-03-15T13:36:30.289Z,0.57
2023-03-15T13:39:00.489Z,1.20
2023-03-15T13:41:32.180Z,0.83
2023-03-15T13:44:08.256Z,0.60
2023-03-15T13:46:39.327Z,0.80
2023-03-15T13:49:09.645Z,1.33
2023-03-15T13:51:41.682Z,0.97
2023-03-15T13:54:18.743Z,0.83
2023-03-15T13:57:01.696Z,0.97
2023-03-15T13:59:42.941Z,1.17
2023-03-15T14:02:19.361Z,0.60
2023-03-15T14:04:54.323Z,0.60
2023-03-15T14:07:31.236Z,0.80
2023-03-15T14:10:25.474Z,0.57
2023-03-15T14:12:56.632Z,0.53
2023-03-15T14:15:39.427Z,0.60
2023-03-15T14:18:20.655Z,0.93
2023-03-15T14:20:57.082Z,0.93
2023-03-15T14:23:28.400Z,1.27
2023-03-15T14:26:03.411Z,0.60
2023-03-15T14:28:35.076Z,0.80
2023-03-15T14:31:08.624Z,0.70
2023-03-15T14:33:42.064Z,0.70
2023-03-15T14:36:25.515Z,0.73
2023-03-15T14:38:57.230Z,0.80
2023-03-15T14:41:34.612Z,0.90
2023-03-15T14:44:04.904Z,0.80
2023-03-15T14:46:38.483Z,0.97
2023-03-15T14:49:08.315Z,0.90
2023-03-15T14:51:38.819Z,0.93
2023-03-15T14:54:08.775Z,1.07
2023-03-15T14:56:39.828Z,1.00
2023-03-15T14:59:14.913Z,1.03
2023-03-15T15:04:37.977Z,1.00
2023-03-15T15:07:07.972Z,1.00
2023-03-15T15:09:40.002Z,0.90
2023-03-15T15:12:12.479Z,1.10
2023-03-15T15:14:42.825Z,0.70
2023-03-15T15:17:12.723Z,0.70
2023-03-15T15:19:46.966Z,1.20
2023-03-15T15:22:17.678Z,1.30
2023-03-15T15:24:49.206Z,0.70
2023-03-15T15:27:19.964Z,0.60
2023-03-15T15:29:49.819Z,1.10
2023-03-15T15:32:19.642Z,1.20
2023-03-15T15:34:54.960Z,0.80
2023-03-15T15:37:25.242Z,1.20
2023-03-15T15:39:55.117Z,0.80
2023-03-15T15:42:25.077Z,0.80
2023-03-15T15:44:54.883Z,0.80
2023-03-15T15:47:24.927Z,0.90
2023-03-15T15:49:57.306Z,1.70
2023-03-15T15:52:27.321Z,1.27
2023-03-15T15:54:58.989Z,0.80
2023-03-15T15:57:30.639Z,1.00
2023-03-15T16:00:01.432Z,1.10
2023-03-15T16:02:31.735Z,1.23
2023-03-15T16:05:04.250Z,1.67
2023-03-15T16:07:34.540Z,0.93
2023-03-15T16:10:04.962Z,1.03
2023-03-15T16:12:35.370Z,1.37
2023-03-15T16:15:05.310Z,0.87
2023-03-15T16:17:35.465Z,0.60
2023-03-15T16:20:11.589Z,0.77
2023-03-15T16:22:43.668Z,0.93
2023-03-15T16:25:19.105Z,1.13
2023-03-15T16:27:49.165Z,0.80
2023-03-15T16:30:23.713Z,1.03
2023-03-15T16:32:55.526Z,0.87
2023-03-15T16:35:33.945Z,1.10
2023-03-15T16:38:07.776Z,0.80
2023-03-15T16:40:42.128Z,0.70
2023-03-15T16:43:14.311Z,0.80
2023-03-15T16:45:44.254Z,1.03
2023-03-15T16:48:16.441Z,1.10
2023-03-15T16:50:48.894Z,1.17
2023-03-15T16:53:19.559Z,0.90
2023-03-15T16:55:49.394Z,1.40
2023-03-15T16:58:21.857Z,1.10
2023-03-15T17:00:51.799Z,0.93
2023-03-15T17:03:22.653Z,0.87
2023-03-15T17:05:55.145Z,0.80
2023-03-15T17:08:26.526Z,2.80
2023-03-15T17:10:58.098Z,3.00
2023-03-15T17:13:34.534Z,1.70
2023-03-15T17:16:04.445Z,1.87
2023-03-15T17:18:34.930Z,1.13
2023-03-15T17:21:08.043Z,1.03
2023-03-15T17:23:37.945Z,10.67
2023-03-15T17:26:09.414Z,4.83
2023-03-15T17:28:41.539Z,3.13
2023-03-15T17:31:25.107Z,1.83
2023-03-15T17:33:58.740Z,0.60
2023-03-15T17:36:37.603Z,0.90
2023-03-15T17:39:10.633Z,1.00
2023-03-15T17:41:44.316Z,1.10
2023-03-15T17:44:14.269Z,0.67
2023-03-15T17:46:49.226Z,1.03
2023-03-15T17:49:21.001Z,0.80
2023-03-15T17:51:53.917Z,0.90
2023-03-15T17:54:26.965Z,0.80
2023-03-15T17:56:59.474Z,0.80
2023-03-15T17:59:29.378Z,1.20
2023-03-15T18:01:59.470Z,0.50
2023-03-15T18:04:29.525Z,0.67
2023-03-15T18:07:03.521Z,0.90
2023-03-15T18:09:34.774Z,0.70
2023-03-15T18:12:04.958Z,0.93
2023-03-15T18:14:37.289Z,0.90
2023-03-15T18:17:07.408Z,1.17
2023-03-15T18:19:37.345Z,1.10
2023-03-15T18:22:12.902Z,1.30
2023-03-15T18:24:43.711Z,0.60
2023-03-15T18:27:15.583Z,1.00
2023-03-15T18:29:45.412Z,0.50
2023-03-15T18:32:15.252Z,0.80
2023-03-15T18:34:45.196Z,1.20
2023-03-15T18:37:22.218Z,0.67
2023-03-15T18:39:55.006Z,0.90
2023-03-15T18:42:28.531Z,0.80
2023-03-15T18:45:01.505Z,0.90
2023-03-15T18:47:32.627Z,0.80
2023-03-15T18:50:10.650Z,0.90
2023-03-15T18:52:43.986Z,0.90
2023-03-15T18:55:15.945Z,1.40
2023-03-15T18:57:47.534Z,1.00
2023-03-15T19:00:23.911Z,1.70
2023-03-15T19:02:54.352Z,0.90
2023-03-15T19:05:24.397Z,0.60
2023-03-15T19:07:57.617Z,1.30
2023-03-15T19:10:28.566Z,1.00
2023-03-15T19:12:59.178Z,1.90
2023-03-15T19:15:29.472Z,1.90
2023-03-15T19:17:59.780Z,1.93
2023-03-15T19:20:31.670Z,1.50
2023-03-15T19:23:04.333Z,1.70
2023-03-15T19:25:34.221Z,1.50
2023-03-15T19:28:04.644Z,1.80
2023-03-15T19:30:34.556Z,1.23
2023-03-15T19:33:04.726Z,1.80
2023-03-15T19:35:35.112Z,2.10
2023-03-15T19:38:11.074Z,1.90
2023-03-15T19:40:41.166Z,1.30
2023-03-15T19:43:11.378Z,1.63
2023-03-15T19:45:41.188Z,2.23
2023-03-15T19:48:10.996Z,1.10
2023-03-15T19:50:40.898Z,1.10
2023-03-15T19:53:14.165Z,1.00
2023-03-15T19:55:44.033Z,1.07
2023-03-15T19:58:15.757Z,1.30
2023-03-15T20:00:45.625Z,1.17
2023-03-15T20:03:15.660Z,1.37
2023-03-15T20:05:45.973Z,0.80
2023-03-15T20:08:25.310Z,0.97
2023-03-15T20:11:04.012Z,1.20
2023-03-15T20:13:33.998Z,0.80
2023-03-15T20:16:04.529Z,0.87
2023-03-15T20:18:34.871Z,1.53
2023-03-15T20:21:05.673Z,1.43
2023-03-15T20:23:38.677Z,1.30
2023-03-15T20:26:11.316Z,1.30
2023-03-15T20:28:42.218Z,1.00
2023-03-15T20:31:14.062Z,0.87
2023-03-15T20:33:44.524Z,1.07
2023-03-15T20:36:14.594Z,1.00
2023-03-15T20:38:47.240Z,1.30
2023-03-15T20:41:18.808Z,1.60
2023-03-15T20:43:49.440Z,1.57
2023-03-15T20:46:20.504Z,1.50
2023-03-15T20:48:54.612Z,1.27
2023-03-15T20:51:24.868Z,1.33
2023-03-15T20:53:57.404Z,0.83
2023-03-15T20:56:27.813Z,1.20
2023-03-15T20:58:57.966Z,1.80
2023-03-15T21:01:27.895Z,1.50
2023-03-15T21:03:58.542Z,0.93
2023-03-15T21:06:28.466Z,1.20
2023-03-15T21:09:01.026Z,1.47
2023-03-15T21:11:31.010Z,1.67
2023-03-15T21:14:01.285Z,1.60
2023-03-15T21:16:33.541Z,1.23
2023-03-15T21:19:04.125Z,1.10
2023-03-15T21:21:34.640Z,1.10
2023-03-15T21:24:07.500Z,1.23
2023-03-15T21:26:38.000Z,1.00
2023-03-15T21:29:08.685Z,1.30
2023-03-15T21:31:39.274Z,1.80
2023-03-15T21:34:09.185Z,1.40
2023-03-15T21:36:39.090Z,1.30
2023-03-15T21:39:12.173Z,1.80
2023-03-15T21:41:42.238Z,1.10
2023-03-15T21:44:12.407Z,1.00
2023-03-15T21:46:42.370Z,0.80
2023-03-15T21:49:12.869Z,1.67
2023-03-15T21:51:46.096Z,1.10
2023-03-15T21:54:19.246Z,1.33
2023-03-15T21:56:49.063Z,1.43
2023-03-15T21:59:19.060Z,1.07
2023-03-15T22:01:49.517Z,0.90
2023-03-15T22:04:19.944Z,1.43
2023-03-15T22:06:49.786Z,0.90
2023-03-15T22:09:23.563Z,1.50
2023-03-15T22:11:53.437Z,1.13
2023-03-15T22:14:23.265Z,1.17
2023-03-15T22:16:53.247Z,0.93
2023-03-15T22:19:23.579Z,0.90
2023-03-15T22:21:53.537Z,1.20
2023-03-15T22:24:26.015Z,1.23
2023-03-15T22:26:56.278Z,1.00
2023-03-15T22:29:26.426Z,1.30
2023-03-15T22:31:56.358Z,1.40
2023-03-15T22:34:27.387Z,0.80
2023-03-15T22:36:57.286Z,0.80
2023-03-15T22:39:29.737Z,0.97
2023-03-15T22:41:59.570Z,1.33
2023-03-15T22:44:31.873Z,1.00
2023-03-15T22:47:02.049Z,1.20
2023-03-15T22:49:32.289Z,0.90
2023-03-15T22:52:02.111Z,1.37
2023-03-15T22:54:35.556Z,1.43
2023-03-15T22:57:05.454Z,0.90
2023-03-15T22:59:35.455Z,1.10
2023-03-15T23:02:05.341Z,0.70
2023-03-15T23:04:35.227Z,0.80
2023-03-15T23:07:05.088Z,1.00
2023-03-15T23:09:37.524Z,0.73
2023-03-15T23:12:07.810Z,1.23
2023-03-15T23:14:37.950Z,0.80
2023-03-15T23:17:07.783Z,1.40
2023-03-15T23:19:37.657Z,1.50
2023-03-15T23:22:08.157Z,1.00
2023-03-15T23:24:40.652Z,1.87
2023-03-15T23:27:11.704Z,1.37
2023-03-15T23:29:53.763Z,1.00
2023-03-15T23:32:25.023Z,1.10
2023-03-15T23:34:55.683Z,0.90
2023-03-15T23:37:26.066Z,0.80
2023-03-15T23:39:58.877Z,1.30
2023-03-15T23:42:29.319Z,1.40
2023-03-15T23:45:00.074Z,1.50
2023-03-15T23:47:32.868Z,1.50
2023-03-15T23:50:02.901Z,0.87
2023-03-15T23:52:32.750Z,0.80
2023-03-15T23:55:06.456Z,0.90
2023-03-15T23:57:36.360Z,0.90
